sensor_id;sensor_type;location;lat;lon;timestamp;P1;durP1;ratioP1;P2;durP2;ratioP2
45962;SDS011;31669;49.892;20.818;2022-12-10T00:01:03;1.73;;;1.63;;
45962;SDS011;31669;49.892;20.818;2022-12-10T00:06:04;0.10;;;0.10;;
45962;SDS011;31669;49.892;20.818;2022-12-10T00:11:06;0.00;;;0.00;;
45962;SDS011;31669;49.892;20.818;2022-12-10T00:16:08;0.15;;;0.15;;
45962;SDS011;31669;49.892;20.818;2022-12-10T00:21:13;0.28;;;0.28;;
45962;SDS011;31669;49.892;20.818;2022-12-10T00:31:16;0.13;;;0.13;;
45962;SDS011;31669;49.892;20.818;2022-12-10T00:36:19;0.00;;;0.00;;
45962;SDS011;31669;49.892;20.818;2022-12-10T00:41:21;0.32;;;0.32;;
45962;SDS011;31669;49.892;20.818;2022-12-10T00:46:22;0.43;;;0.43;;
45962;SDS011;31669;49.892;20.818;2022-12-10T00:51:23;0.03;;;0.03;;
45962;SDS011;31669;49.892;20.818;2022-12-10T00:56:26;0.13;;;0.13;;
45962;SDS011;31669;49.892;20.818;2022-12-10T01:01:29;0.00;;;0.00;;
45962;SDS011;31669;49.892;20.818;2022-12-10T01:06:34;0.10;;;0.10;;
45962;SDS011;31669;49.892;20.818;2022-12-10T01:11:37;0.13;;;0.13;;
45962;SDS011;31669;49.892;20.818;2022-12-10T01:16:38;0.63;;;0.63;;
45962;SDS011;31669;49.892;20.818;2022-12-10T01:21:38;0.10;;;0.10;;
45962;SDS011;31669;49.892;20.818;2022-12-10T01:26:39;0.00;;;0.00;;
45962;SDS011;31669;49.892;20.818;2022-12-10T01:31:40;0.10;;;0.10;;
45962;SDS011;31669;49.892;20.818;2022-12-10T01:36:42;0.00;;;0.00;;
45962;SDS011;31669;49.892;20.818;2022-12-10T01:41:45;0.00;;;0.00;;
45962;SDS011;31669;49.892;20.818;2022-12-10T01:46:50;0.00;;;0.00;;
45962;SDS011;31669;49.892;20.818;2022-12-10T01:51:52;0.00;;;0.00;;
45962;SDS011;31669;49.892;20.818;2022-12-10T01:57:06;0.20;;;0.20;;
45962;SDS011;31669;49.892;20.818;2022-12-10T02:07:30;0.00;;;0.00;;
45962;SDS011;31669;49.892;20.818;2022-12-10T02:12:35;0.00;;;0.00;;
45962;SDS011;31669;49.892;20.818;2022-12-10T02:17:40;0.00;;;0.00;;
45962;SDS011;31669;49.892;20.818;2022-12-10T02:22:44;0.25;;;0.25;;
45962;SDS011;31669;49.892;20.818;2022-12-10T02:28:01;0.03;;;0.03;;
45962;SDS011;31669;49.892;20.818;2022-12-10T02:33:02;0.00;;;0.00;;
45962;SDS011;31669;49.892;20.818;2022-12-10T02:38:09;0.00;;;0.00;;
45962;SDS011;31669;49.892;20.818;2022-12-10T02:43:12;0.00;;;0.00;;
45962;SDS011;31669;49.892;20.818;2022-12-10T02:48:13;0.15;;;0.15;;
45962;SDS011;31669;49.892;20.818;2022-12-10T02:53:14;0.00;;;0.00;;
45962;SDS011;31669;49.892;20.818;2022-12-10T02:58:27;0.00;;;0.00;;
45962;SDS011;31669;49.892;20.818;2022-12-10T03:08:47;0.00;;;0.00;;
45962;SDS011;31669;49.892;20.818;2022-12-10T03:13:52;0.30;;;0.30;;
45962;SDS011;31669;49.892;20.818;2022-12-10T03:18:56;0.00;;;0.00;;
45962;SDS011;31669;49.892;20.818;2022-12-10T03:23:57;0.00;;;0.00;;
45962;SDS011;31669;49.892;20.818;2022-12-10T03:29:02;0.00;;;0.00;;
45962;SDS011;31669;49.892;20.818;2022-12-10T03:34:05;0.00;;;0.00;;
45962;SDS011;31669;49.892;20.818;2022-12-10T03:39:07;0.00;;;0.00;;
45962;SDS011;31669;49.892;20.818;2022-12-10T03:44:08;0.00;;;0.00;;
45962;SDS011;31669;49.892;20.818;2022-12-10T03:49:09;0.00;;;0.00;;
45962;SDS011;31669;49.892;20.818;2022-12-10T03:59:11;0.00;;;0.00;;
45962;SDS011;31669;49.892;20.818;2022-12-10T04:04:11;0.00;;;0.00;;
45962;SDS011;31669;49.892;20.818;2022-12-10T04:09:13;0.00;;;0.00;;
45962;SDS011;31669;49.892;20.818;2022-12-10T04:14:14;0.00;;;0.00;;
45962;SDS011;31669;49.892;20.818;2022-12-10T04:19:33;0.13;;;0.13;;
45962;SDS011;31669;49.892;20.818;2022-12-10T04:24:34;0.53;;;0.53;;
45962;SDS011;31669;49.892;20.818;2022-12-10T04:29:55;0.00;;;0.00;;
45962;SDS011;31669;49.892;20.818;2022-12-10T04:34:56;0.10;;;0.10;;
45962;SDS011;31669;49.892;20.818;2022-12-10T04:39:57;0.13;;;0.13;;
45962;SDS011;31669;49.892;20.818;2022-12-10T04:44:57;0.00;;;0.00;;
45962;SDS011;31669;49.892;20.818;2022-12-10T04:49:58;1.30;;;1.20;;
45962;SDS011;31669;49.892;20.818;2022-12-10T04:54:59;0.00;;;0.00;;
45962;SDS011;31669;49.892;20.818;2022-12-10T04:59:59;0.13;;;0.13;;
45962;SDS011;31669;49.892;20.818;2022-12-10T05:05:00;0.00;;;0.00;;
45962;SDS011;31669;49.892;20.818;2022-12-10T05:10:01;0.00;;;0.00;;
45962;SDS011;31669;49.892;20.818;2022-12-10T05:15:01;0.00;;;0.00;;
45962;SDS011;31669;49.892;20.818;2022-12-10T05:20:02;0.00;;;0.00;;
45962;SDS011;31669;49.892;20.818;2022-12-10T05:25:03;0.00;;;0.00;;
45962;SDS011;31669;49.892;20.818;2022-12-10T05:30:04;0.00;;;0.00;;
45962;SDS011;31669;49.892;20.818;2022-12-10T05:35:05;0.65;;;0.65;;
45962;SDS011;31669;49.892;20.818;2022-12-10T05:40:06;0.00;;;0.00;;
45962;SDS011;31669;49.892;20.818;2022-12-10T05:45:07;0.00;;;0.00;;
45962;SDS011;31669;49.892;20.818;2022-12-10T05:50:08;0.00;;;0.00;;
45962;SDS011;31669;49.892;20.818;2022-12-10T05:55:09;0.00;;;0.00;;
45962;SDS011;31669;49.892;20.818;2022-12-10T06:00:10;0.00;;;0.00;;
45962;SDS011;31669;49.892;20.818;2022-12-10T06:05:11;0.00;;;0.00;;
45962;SDS011;31669;49.892;20.818;2022-12-10T06:10:11;0.00;;;0.00;;
45962;SDS011;31669;49.892;20.818;2022-12-10T06:15:12;0.00;;;0.00;;
45962;SDS011;31669;49.892;20.818;2022-12-10T06:20:13;2.80;;;1.63;;
45962;SDS011;31669;49.892;20.818;2022-12-10T06:25:13;0.00;;;0.00;;
45962;SDS011;31669;49.892;20.818;2022-12-10T06:30:14;0.00;;;0.00;;
45962;SDS011;31669;49.892;20.818;2022-12-10T06:40:16;0.10;;;0.03;;
45962;SDS011;31669;49.892;20.818;2022-12-10T06:45:17;0.00;;;0.00;;
45962;SDS011;31669;49.892;20.818;2022-12-10T06:50:18;0.00;;;0.00;;
45962;SDS011;31669;49.892;20.818;2022-12-10T06:55:18;0.00;;;0.00;;
45962;SDS011;31669;49.892;20.818;2022-12-10T07:00:19;0.00;;;0.00;;
45962;SDS011;31669;49.892;20.818;2022-12-10T07:05:20;0.28;;;0.28;;
45962;SDS011;31669;49.892;20.818;2022-12-10T07:10:21;0.00;;;0.00;;
45962;SDS011;31669;49.892;20.818;2022-12-10T07:15:22;0.00;;;0.00;;
45962;SDS011;31669;49.892;20.818;2022-12-10T07:20:24;0.13;;;0.13;;
45962;SDS011;31669;49.892;20.818;2022-12-10T07:25:24;0.00;;;0.00;;
45962;SDS011;31669;49.892;20.818;2022-12-10T07:30:25;0.10;;;0.10;;
45962;SDS011;31669;49.892;20.818;2022-12-10T07:35:26;0.00;;;0.00;;
45962;SDS011;31669;49.892;20.818;2022-12-10T07:40:27;0.00;;;0.00;;
45962;SDS011;31669;49.892;20.818;2022-12-10T07:45:27;0.00;;;0.00;;
45962;SDS011;31669;49.892;20.818;2022-12-10T07:50:28;0.53;;;0.20;;
45962;SDS011;31669;49.892;20.818;2022-12-10T07:55:29;0.00;;;0.00;;
45962;SDS011;31669;49.892;20.818;2022-12-10T08:00:29;0.00;;;0.00;;
45962;SDS011;31669;49.892;20.818;2022-12-10T08:05:30;0.97;;;0.80;;
45962;SDS011;31669;49.892;20.818;2022-12-10T08:10:37;0.00;;;0.00;;
45962;SDS011;31669;49.892;20.818;2022-12-10T08:15:38;0.00;;;0.00;;
45962;SDS011;31669;49.892;20.818;2022-12-10T08:20:39;0.20;;;0.20;;
45962;SDS011;31669;49.892;20.818;2022-12-10T08:25:39;0.00;;;0.00;;
45962;SDS011;31669;49.892;20.818;2022-12-10T08:30:45;0.00;;;0.00;;
45962;SDS011;31669;49.892;20.818;2022-12-10T08:35:45;0.00;;;0.00;;
45962;SDS011;31669;49.892;20.818;2022-12-10T08:40:46;0.00;;;0.00;;
45962;SDS011;31669;49.892;20.818;2022-12-10T08:45:47;0.00;;;0.00;;
45962;SDS011;31669;49.892;20.818;2022-12-10T08:50:47;0.00;;;0.00;;
45962;SDS011;31669;49.892;20.818;2022-12-10T08:55:52;0.00;;;0.00;;
45962;SDS011;31669;49.892;20.818;2022-12-10T09:00:52;0.00;;;0.00;;
45962;SDS011;31669;49.892;20.818;2022-12-10T09:05:53;0.10;;;0.10;;
45962;SDS011;31669;49.892;20.818;2022-12-10T09:10:54;0.00;;;0.00;;
45962;SDS011;31669;49.892;20.818;2022-12-10T09:15:55;0.00;;;0.00;;
45962;SDS011;31669;49.892;20.818;2022-12-10T09:20:55;0.00;;;0.00;;
45962;SDS011;31669;49.892;20.818;2022-12-10T09:25:56;0.00;;;0.00;;
45962;SDS011;31669;49.892;20.818;2022-12-10T09:30:58;0.00;;;0.00;;
45962;SDS011;31669;49.892;20.818;2022-12-10T09:35:59;0.00;;;0.00;;
45962;SDS011;31669;49.892;20.818;2022-12-10T09:41:04;0.00;;;0.00;;
45962;SDS011;31669;49.892;20.818;2022-12-10T09:46:20;1.75;;;1.65;;
45962;SDS011;31669;49.892;20.818;2022-12-10T09:51:31;0.00;;;0.00;;
45962;SDS011;31669;49.892;20.818;2022-12-10T09:56:33;0.00;;;0.00;;
45962;SDS011;31669;49.892;20.818;2022-12-10T10:07:32;0.00;;;0.00;;
45962;SDS011;31669;49.892;20.818;2022-12-10T10:12:33;0.00;;;0.00;;
45962;SDS011;31669;49.892;20.818;2022-12-10T10:17:35;0.00;;;0.00;;
45962;SDS011;31669;49.892;20.818;2022-12-10T10:22:36;0.10;;;0.10;;
45962;SDS011;31669;49.892;20.818;2022-12-10T10:27:37;0.00;;;0.00;;
45962;SDS011;31669;49.892;20.818;2022-12-10T10:37:40;0.00;;;0.00;;
45962;SDS011;31669;49.892;20.818;2022-12-10T10:42:41;0.00;;;0.00;;
45962;SDS011;31669;49.892;20.818;2022-12-10T10:47:43;0.00;;;0.00;;
45962;SDS011;31669;49.892;20.818;2022-12-10T10:52:43;0.73;;;0.73;;
45962;SDS011;31669;49.892;20.818;2022-12-10T10:57:44;0.00;;;0.00;;
45962;SDS011;31669;49.892;20.818;2022-12-10T11:02:45;0.00;;;0.00;;
45962;SDS011;31669;49.892;20.818;2022-12-10T11:18:29;0.15;;;0.15;;
45962;SDS011;31669;49.892;20.818;2022-12-10T11:23:32;0.00;;;0.00;;
45962;SDS011;31669;49.892;20.818;2022-12-10T11:44:43;0.00;;;0.00;;
45962;SDS011;31669;49.892;20.818;2022-12-10T11:54:51;0.00;;;0.00;;
45962;SDS011;31669;49.892;20.818;2022-12-10T12:00:05;0.00;;;0.00;;
45962;SDS011;31669;49.892;20.818;2022-12-10T12:05:34;0.00;;;0.00;;
45962;SDS011;31669;49.892;20.818;2022-12-10T12:16:17;0.00;;;0.00;;
45962;SDS011;31669;49.892;20.818;2022-12-10T12:21:21;0.00;;;0.00;;
45962;SDS011;31669;49.892;20.818;2022-12-10T12:26:29;0.00;;;0.00;;
45962;SDS011;31669;49.892;20.818;2022-12-10T12:31:35;1.20;;;1.13;;
45962;SDS011;31669;49.892;20.818;2022-12-10T12:36:37;0.30;;;0.30;;
45962;SDS011;31669;49.892;20.818;2022-12-10T12:41:48;0.00;;;0.00;;
45962;SDS011;31669;49.892;20.818;2022-12-10T12:46:51;0.00;;;0.00;;
45962;SDS011;31669;49.892;20.818;2022-12-10T12:51:58;0.10;;;0.10;;
45962;SDS011;31669;49.892;20.818;2022-12-10T13:02:33;0.13;;;0.13;;
45962;SDS011;31669;49.892;20.818;2022-12-10T13:07:39;1.77;;;1.65;;
45962;SDS011;31669;49.892;20.818;2022-12-10T13:12:47;1.95;;;1.30;;
45962;SDS011;31669;49.892;20.818;2022-12-10T13:23:08;0.00;;;0.00;;
45962;SDS011;31669;49.892;20.818;2022-12-10T13:33:26;0.13;;;0.13;;
45962;SDS011;31669;49.892;20.818;2022-12-10T13:44:25;0.52;;;0.52;;
45962;SDS011;31669;49.892;20.818;2022-12-10T13:49:34;0.00;;;0.00;;
45962;SDS011;31669;49.892;20.818;2022-12-10T13:55:08;0.00;;;0.00;;
45962;SDS011;31669;49.892;20.818;2022-12-10T14:00:09;0.00;;;0.00;;
45962;SDS011;31669;49.892;20.818;2022-12-10T14:10:15;0.07;;;0.07;;
45962;SDS011;31669;49.892;20.818;2022-12-10T14:15:22;0.93;;;0.93;;
45962;SDS011;31669;49.892;20.818;2022-12-10T14:20:24;0.00;;;0.00;;
45962;SDS011;31669;49.892;20.818;2022-12-10T14:25:25;0.05;;;0.05;;
45962;SDS011;31669;49.892;20.818;2022-12-10T14:30:26;0.47;;;0.47;;
45962;SDS011;31669;49.892;20.818;2022-12-10T14:35:28;0.00;;;0.00;;
45962;SDS011;31669;49.892;20.818;2022-12-10T14:40:30;0.00;;;0.00;;
45962;SDS011;31669;49.892;20.818;2022-12-10T14:45:45;0.00;;;0.00;;
45962;SDS011;31669;49.892;20.818;2022-12-10T14:50:47;0.00;;;0.00;;
45962;SDS011;31669;49.892;20.818;2022-12-10T14:55:49;0.00;;;0.00;;
45962;SDS011;31669;49.892;20.818;2022-12-10T15:00:50;0.43;;;0.43;;
45962;SDS011;31669;49.892;20.818;2022-12-10T15:05:58;0.00;;;0.00;;
45962;SDS011;31669;49.892;20.818;2022-12-10T15:11:00;0.00;;;0.00;;
45962;SDS011;31669;49.892;20.818;2022-12-10T15:16:05;0.00;;;0.00;;
45962;SDS011;31669;49.892;20.818;2022-12-10T15:21:09;1.27;;;0.85;;
45962;SDS011;31669;49.892;20.818;2022-12-10T15:26:45;0.00;;;0.00;;
45962;SDS011;31669;49.892;20.818;2022-12-10T15:31:38;0.00;;;0.00;;
45962;SDS011;31669;49.892;20.818;2022-12-10T15:36:40;0.70;;;0.70;;
45962;SDS011;31669;49.892;20.818;2022-12-10T15:41:45;0.30;;;0.30;;
45962;SDS011;31669;49.892;20.818;2022-12-10T15:46:48;0.00;;;0.00;;
45962;SDS011;31669;49.892;20.818;2022-12-10T15:51:49;1.52;;;0.45;;
45962;SDS011;31669;49.892;20.818;2022-12-10T15:56:50;2.55;;;1.55;;
45962;SDS011;31669;49.892;20.818;2022-12-10T16:01:51;2.27;;;1.50;;
45962;SDS011;31669;49.892;20.818;2022-12-10T16:06:51;0.10;;;0.10;;
45962;SDS011;31669;49.892;20.818;2022-12-10T16:11:52;0.00;;;0.00;;
45962;SDS011;31669;49.892;20.818;2022-12-10T16:16:53;0.00;;;0.00;;
45962;SDS011;31669;49.892;20.818;2022-12-10T16:21:53;0.20;;;0.20;;
45962;SDS011;31669;49.892;20.818;2022-12-10T16:26:54;0.20;;;0.20;;
45962;SDS011;31669;49.892;20.818;2022-12-10T16:31:55;5.23;;;1.17;;
45962;SDS011;31669;49.892;20.818;2022-12-10T16:36:56;0.00;;;0.00;;
45962;SDS011;31669;49.892;20.818;2022-12-10T16:41:57;1.20;;;0.47;;
45962;SDS011;31669;49.892;20.818;2022-12-10T16:46:58;0.27;;;0.27;;
45962;SDS011;31669;49.892;20.818;2022-12-10T16:51:58;0.00;;;0.00;;
45962;SDS011;31669;49.892;20.818;2022-12-10T16:56:59;0.00;;;0.00;;
45962;SDS011;31669;49.892;20.818;2022-12-10T17:02:00;0.00;;;0.00;;
45962;SDS011;31669;49.892;20.818;2022-12-10T17:07:00;0.00;;;0.00;;
45962;SDS011;31669;49.892;20.818;2022-12-10T17:12:01;2.30;;;2.10;;
45962;SDS011;31669;49.892;20.818;2022-12-10T17:17:02;0.20;;;0.20;;
45962;SDS011;31669;49.892;20.818;2022-12-10T17:27:18;0.00;;;0.00;;
45962;SDS011;31669;49.892;20.818;2022-12-10T17:32:20;0.00;;;0.00;;
45962;SDS011;31669;49.892;20.818;2022-12-10T17:37:21;0.40;;;0.40;;
45962;SDS011;31669;49.892;20.818;2022-12-10T17:42:22;0.00;;;0.00;;
45962;SDS011;31669;49.892;20.818;2022-12-10T17:47:24;1.47;;;1.40;;
45962;SDS011;31669;49.892;20.818;2022-12-10T17:52:25;0.00;;;0.00;;
45962;SDS011;31669;49.892;20.818;2022-12-10T17:57:25;0.20;;;0.20;;
45962;SDS011;31669;49.892;20.818;2022-12-10T18:02:26;0.00;;;0.00;;
45962;SDS011;31669;49.892;20.818;2022-12-10T18:07:27;0.00;;;0.00;;
45962;SDS011;31669;49.892;20.818;2022-12-10T18:12:28;0.00;;;0.00;;
45962;SDS011;31669;49.892;20.818;2022-12-10T18:17:28;0.00;;;0.00;;
45962;SDS011;31669;49.892;20.818;2022-12-10T18:22:29;0.50;;;0.50;;
45962;SDS011;31669;49.892;20.818;2022-12-10T18:27:33;0.00;;;0.00;;
45962;SDS011;31669;49.892;20.818;2022-12-10T18:32:34;0.00;;;0.00;;
45962;SDS011;31669;49.892;20.818;2022-12-10T18:37:36;0.00;;;0.00;;
45962;SDS011;31669;49.892;20.818;2022-12-10T18:42:36;0.00;;;0.00;;
45962;SDS011;31669;49.892;20.818;2022-12-10T18:47:37;0.23;;;0.23;;
45962;SDS011;31669;49.892;20.818;2022-12-10T18:52:38;0.00;;;0.00;;
45962;SDS011;31669;49.892;20.818;2022-12-10T18:57:39;0.00;;;0.00;;
45962;SDS011;31669;49.892;20.818;2022-12-10T19:02:39;0.00;;;0.00;;
45962;SDS011;31669;49.892;20.818;2022-12-10T19:07:40;0.00;;;0.00;;
45962;SDS011;31669;49.892;20.818;2022-12-10T19:12:42;0.00;;;0.00;;
45962;SDS011;31669;49.892;20.818;2022-12-10T19:17:43;0.00;;;0.00;;
45962;SDS011;31669;49.892;20.818;2022-12-10T19:22:43;0.00;;;0.00;;
45962;SDS011;31669;49.892;20.818;2022-12-10T19:32:46;0.00;;;0.00;;
45962;SDS011;31669;49.892;20.818;2022-12-10T19:37:47;0.47;;;0.47;;
45962;SDS011;31669;49.892;20.818;2022-12-10T19:42:49;0.00;;;0.00;;
45962;SDS011;31669;49.892;20.818;2022-12-10T19:47:50;0.00;;;0.00;;
45962;SDS011;31669;49.892;20.818;2022-12-10T19:52:57;0.30;;;0.30;;
45962;SDS011;31669;49.892;20.818;2022-12-10T19:57:59;0.20;;;0.20;;
45962;SDS011;31669;49.892;20.818;2022-12-10T20:03:00;0.00;;;0.00;;
45962;SDS011;31669;49.892;20.818;2022-12-10T20:08:00;0.00;;;0.00;;
45962;SDS011;31669;49.892;20.818;2022-12-10T20:13:01;0.00;;;0.00;;
45962;SDS011;31669;49.892;20.818;2022-12-10T20:18:05;0.00;;;0.00;;
45962;SDS011;31669;49.892;20.818;2022-12-10T20:23:06;6.68;;;1.42;;
45962;SDS011;31669;49.892;20.818;2022-12-10T20:28:08;0.00;;;0.00;;
45962;SDS011;31669;49.892;20.818;2022-12-10T20:33:10;0.00;;;0.00;;
45962;SDS011;31669;49.892;20.818;2022-12-10T20:38:11;0.47;;;0.47;;
45962;SDS011;31669;49.892;20.818;2022-12-10T20:43:15;0.52;;;0.52;;
45962;SDS011;31669;49.892;20.818;2022-12-10T20:48:16;2.13;;;0.80;;
45962;SDS011;31669;49.892;20.818;2022-12-10T20:53:17;0.00;;;0.00;;
45962;SDS011;31669;49.892;20.818;2022-12-10T20:58:18;0.57;;;0.57;;
45962;SDS011;31669;49.892;20.818;2022-12-10T21:03:19;0.00;;;0.00;;
45962;SDS011;31669;49.892;20.818;2022-12-10T21:08:20;0.00;;;0.00;;
45962;SDS011;31669;49.892;20.818;2022-12-10T21:13:23;0.00;;;0.00;;
45962;SDS011;31669;49.892;20.818;2022-12-10T21:18:25;1.08;;;1.08;;
45962;SDS011;31669;49.892;20.818;2022-12-10T21:23:26;0.00;;;0.00;;
45962;SDS011;31669;49.892;20.818;2022-12-10T21:28:27;0.63;;;0.63;;
45962;SDS011;31669;49.892;20.818;2022-12-10T21:33:27;57.30;;;21.63;;
45962;SDS011;31669;49.892;20.818;2022-12-10T21:38:28;19.67;;;9.83;;
45962;SDS011;31669;49.892;20.818;2022-12-10T21:43:29;23.83;;;11.27;;
45962;SDS011;31669;49.892;20.818;2022-12-10T21:48:30;60.47;;;19.83;;
45962;SDS011;31669;49.892;20.818;2022-12-10T21:53:30;26.43;;;13.13;;
45962;SDS011;31669;49.892;20.818;2022-12-10T21:58:31;19.43;;;9.70;;
45962;SDS011;31669;49.892;20.818;2022-12-10T22:03:32;21.53;;;9.27;;
45962;SDS011;31669;49.892;20.818;2022-12-10T22:08:33;30.58;;;11.40;;
45962;SDS011;31669;49.892;20.818;2022-12-10T22:13:34;11.98;;;7.25;;
45962;SDS011;31669;49.892;20.818;2022-12-10T22:18:35;10.70;;;5.97;;
45962;SDS011;31669;49.892;20.818;2022-12-10T22:23:36;12.88;;;7.22;;
45962;SDS011;31669;49.892;20.818;2022-12-10T22:28:39;12.38;;;6.82;;
45962;SDS011;31669;49.892;20.818;2022-12-10T22:33:40;15.03;;;8.70;;
45962;SDS011;31669;49.892;20.818;2022-12-10T22:38:41;12.67;;;6.90;;
45962;SDS011;31669;49.892;20.818;2022-12-10T22:43:41;12.40;;;6.23;;
45962;SDS011;31669;49.892;20.818;2022-12-10T22:48:42;8.43;;;5.90;;
45962;SDS011;31669;49.892;20.818;2022-12-10T22:53:43;10.70;;;5.73;;
45962;SDS011;31669;49.892;20.818;2022-12-10T22:58:44;10.60;;;5.77;;
45962;SDS011;31669;49.892;20.818;2022-12-10T23:03:45;7.97;;;5.03;;
45962;SDS011;31669;49.892;20.818;2022-12-10T23:08:46;8.65;;;4.53;;
45962;SDS011;31669;49.892;20.818;2022-12-10T23:13:46;11.00;;;5.33;;
45962;SDS011;31669;49.892;20.818;2022-12-10T23:18:47;14.57;;;6.53;;
45962;SDS011;31669;49.892;20.818;2022-12-10T23:23:51;8.85;;;5.35;;
45962;SDS011;31669;49.892;20.818;2022-12-10T23:28:52;9.50;;;5.85;;
45962;SDS011;31669;49.892;20.818;2022-12-10T23:33:53;10.13;;;5.83;;
45962;SDS011;31669;49.892;20.818;2022-12-10T23:38:53;7.30;;;4.80;;
45962;SDS011;31669;49.892;20.818;2022-12-10T23:43:55;6.78;;;4.20;;
45962;SDS011;31669;49.892;20.818;2022-12-10T23:48:55;6.82;;;4.20;;
45962;SDS011;31669;49.892;20.818;2022-12-10T23:53:56;7.20;;;4.23;;
45962;SDS011;31669;49.892;20.818;2022-12-10T23:58:57;8.87;;;4.27;;
